Time;durP1;ratioP1;P1;durP2;ratioP2;P2;SDS_P1;SDS_P2;PMS_P1;PMS_P2;Temp;Humidity;BMP_temperature;BMP_pressure;BME280_temperature;BME280_humidity;BME280_pressure;Samples;Min_cycle;Max_cycle;Signal;HPM_P1;HPM_P2
2021/09/27 00:02:08;;;;;;;9.90;8.90;;;16.60;99.90;;;;;;5043429;28;20554;-74
2021/09/27 00:04:34;;;;;;;9.17;7.67;;;16.60;99.90;;;;;;5041629;28;20180;-74
2021/09/27 00:06:59;;;;;;;10.77;7.90;;;16.60;99.90;;;;;;5039835;28;20434;-74
2021/09/27 00:09:32;;;;;;;9.63;7.83;;;16.60;99.90;;;;;;5044366;28;20780;-74
2021/09/27 00:11:59;;;;;;;12.33;8.67;;;16.60;99.90;;;;;;5046321;28;20192;-74
2021/09/27 00:14:25;;;;;;;9.53;7.73;;;16.50;99.90;;;;;;5036845;28;20415;-74
2021/09/27 00:16:50;;;;;;;10.70;8.83;;;16.50;99.90;;;;;;5026614;28;20420;-74
2021/09/27 00:19:16;;;;;;;9.63;8.00;;;16.50;99.90;;;;;;5031484;28;20877;-74
2021/09/27 00:21:42;;;;;;;9.77;8.80;;;16.50;99.90;;;;;;5025309;28;20768;-74
2021/09/27 00:24:07;;;;;;;8.10;7.30;;;16.50;99.90;;;;;;5029731;28;20246;-74
2021/09/27 00:26:33;;;;;;;9.77;8.77;;;16.50;99.90;;;;;;5021915;28;20557;-74
2021/09/27 00:28:59;;;;;;;14.37;9.70;;;16.50;99.90;;;;;;5029986;28;20562;-74
2021/09/27 00:31:25;;;;;;;10.70;8.77;;;16.40;99.90;;;;;;5030184;28;20189;-74
2021/09/27 00:33:50;;;;;;;12.53;9.93;;;16.40;99.90;;;;;;5028266;28;20205;-74
2021/09/27 00:36:17;;;;;;;13.30;9.30;;;16.40;99.90;;;;;;5025079;28;20216;-74
2021/09/27 00:38:43;;;;;;;13.90;11.10;;;16.40;99.90;;;;;;5031007;28;20186;-74
2021/09/27 00:41:11;;;;;;;23.83;14.57;;;16.40;99.90;;;;;;5028695;28;20416;-74
2021/09/27 00:43:39;;;;;;;16.20;11.70;;;16.40;99.90;;;;;;5031245;28;20450;-74
2021/09/27 00:46:09;;;;;;;16.70;12.17;;;16.40;99.90;;;;;;5026371;28;20917;-74
2021/09/27 00:48:36;;;;;;;17.33;9.07;;;16.40;99.90;;;;;;5033208;28;20435;-74
2021/09/27 00:51:07;;;;;;;14.10;10.27;;;16.40;99.90;;;;;;5032770;28;20784;-74
2021/09/27 00:56:19;;;;;;;13.57;9.43;;;16.50;99.90;;;;;;5066326;28;20536;-75
2021/09/27 00:58:46;;;;;;;7.33;6.60;;;16.40;99.90;;;;;;5063653;28;20430;-75
2021/09/27 01:01:13;;;;;;;9.87;7.60;;;16.40;99.90;;;;;;5065971;28;20501;-75
2021/09/27 01:03:39;;;;;;;9.10;8.20;;;16.40;99.90;;;;;;5061598;28;20428;-75
2021/09/27 01:09:48;;;;;;;15.53;11.37;;;16.40;99.90;;;;;;5183798;27;20540;-73
2021/09/27 01:12:34;;;;;;;21.57;13.60;;;16.40;99.90;;;;;;5150795;27;20416;-73
2021/09/27 01:21:00;;;;;;;16.10;11.80;;;16.40;99.90;;;;;;5047510;28;20682;-75
2021/09/27 01:26:50;;;;;;;18.40;13.10;;;16.30;99.90;;;;;;5061792;28;20573;-73
2021/09/27 01:35:47;;;;;;;10.57;8.17;;;16.20;99.90;;;;;;5089004;27;20550;-75
2021/09/27 01:41:17;;;;;;;10.47;8.20;;;16.20;99.90;;;;;;5047953;28;21074;-75
2021/09/27 01:46:40;;;;;;;10.07;8.60;;;16.20;99.90;;;;;;5071131;27;20610;-74
2021/09/27 01:49:14;;;;;;;13.73;9.30;;;16.20;99.90;;;;;;5072492;28;20405;-74
2021/09/27 02:03:03;;;;;;;14.13;9.00;;;16.10;99.90;;;;;;5068068;28;20516;-75
2021/09/27 02:05:40;;;;;;;10.40;8.73;;;16.10;99.90;;;;;;5059442;28;20514;-75
2021/09/27 02:08:11;;;;;;;14.87;10.50;;;16.10;99.90;;;;;;5064295;28;20427;-75
2021/09/27 02:10:46;;;;;;;13.23;9.80;;;16.10;99.90;;;;;;5068114;28;20975;-75
2021/09/27 02:13:35;;;;;;;11.93;9.10;;;16.10;99.90;;;;;;5063426;28;20431;-75
2021/09/27 02:16:12;;;;;;;11.33;9.07;;;16.00;99.90;;;;;;5059260;28;20421;-74
2021/09/27 02:18:45;;;;;;;10.70;8.73;;;16.00;99.90;;;;;;5062358;28;20421;-74
2021/09/27 02:21:16;;;;;;;12.70;8.63;;;16.00;99.90;;;;;;5062975;28;20516;-74
2021/09/27 02:23:54;;;;;;;12.53;9.20;;;16.00;99.90;;;;;;5057403;28;20558;-74
2021/09/27 02:26:20;;;;;;;10.20;8.60;;;16.00;99.90;;;;;;5061242;28;20429;-74
2021/09/27 02:28:46;;;;;;;10.53;8.03;;;15.90;99.90;;;;;;5059187;28;20833;-74
2021/09/27 02:31:38;;;;;;;10.87;9.03;;;15.90;99.90;;;;;;5060812;28;20452;-74
2021/09/27 02:34:13;;;;;;;8.70;7.80;;;15.90;99.90;;;;;;5039953;28;20431;-74
2021/09/27 02:37:02;;;;;;;18.50;11.43;;;15.90;99.90;;;;;;5042621;28;20457;-75
2021/09/27 02:42:26;;;;;;;10.43;8.47;;;15.90;99.90;;;;;;5052189;28;21087;-72
2021/09/27 02:44:52;;;;;;;11.80;9.47;;;15.90;99.90;;;;;;5050299;28;20418;-73
2021/09/27 02:47:25;;;;;;;10.50;8.77;;;15.90;99.90;;;;;;5050079;28;20941;-73
2021/09/27 02:49:56;;;;;;;11.57;9.27;;;15.90;99.90;;;;;;5050210;28;20412;-73
2021/09/27 02:52:22;;;;;;;12.87;8.43;;;15.90;99.90;;;;;;5049936;28;20430;-73
2021/09/27 02:54:53;;;;;;;11.00;9.80;;;15.90;99.90;;;;;;5049541;28;20446;-73
2021/09/27 03:11:57;;;;;;;9.53;7.93;;;16.20;99.90;;;;;;5069890;28;20646;-73
2021/09/27 03:23:10;;;;;;;9.57;8.57;;;16.30;99.90;;;;;;5062654;28;20528;-73
2021/09/27 03:26:02;;;;;;;8.93;8.07;;;16.40;99.90;;;;;;5050593;28;20498;-73
2021/09/27 03:28:45;;;;;;;10.20;8.33;;;16.40;99.90;;;;;;5051497;28;20445;-73
2021/09/27 03:45:14;;;;;;;7.67;6.87;;;16.60;99.90;;;;;;5064461;28;20528;-73
2021/09/27 03:47:54;;;;;;;9.73;7.40;;;16.60;99.90;;;;;;5051410;28;20414;-73
2021/09/27 03:50:31;;;;;;;9.03;7.80;;;16.60;99.90;;;;;;5051029;28;20410;-73
2021/09/27 03:53:05;;;;;;;7.63;6.87;;;16.60;99.90;;;;;;5048843;28;20453;-74
2021/09/27 03:58:22;;;;;;;8.20;7.20;;;16.60;99.90;;;;;;5063777;28;20630;-73
2021/09/27 04:10:07;;;;;;;9.27;7.43;;;16.60;99.90;;;;;;5068340;28;20513;-73
2021/09/27 04:12:57;;;;;;;11.70;8.70;;;16.60;99.90;;;;;;5048794;28;20572;-73
2021/09/27 04:18:17;;;;;;;10.30;7.90;;;16.60;99.90;;;;;;5042447;28;20521;-73
2021/09/27 04:29:35;;;;;;;8.47;7.60;;;16.60;99.90;;;;;;5065007;28;20535;-73
2021/09/27 04:37:55;;;;;;;8.00;7.20;;;16.50;99.90;;;;;;5052980;28;21016;-73
2021/09/27 04:40:35;;;;;;;8.70;7.53;;;16.50;99.90;;;;;;5051154;28;20450;-73
2021/09/27 04:54:30;;;;;;;8.37;7.50;;;16.60;99.90;;;;;;5052669;28;20544;-72
2021/09/27 04:57:25;;;;;;;8.53;7.47;;;16.60;99.90;;;;;;5028754;28;20443;-72
2021/09/27 05:11:21;;;;;;;7.60;6.87;;;16.50;99.90;;;;;;5060954;28;20620;-73
2021/09/27 05:14:17;;;;;;;8.80;7.73;;;16.40;99.90;;;;;;5046187;28;20434;-73
2021/09/27 05:20:02;;;;;;;11.40;9.27;;;16.40;99.90;;;;;;5043303;28;20647;-73
2021/09/27 05:28:34;;;;;;;11.33;8.30;;;16.30;99.90;;;;;;5061245;28;21011;-74
2021/09/27 05:37:30;;;;;;;13.43;8.77;;;16.30;99.90;;;;;;5045269;28;21010;-72
2021/09/27 05:40:20;;;;;;;8.87;7.97;;;16.30;99.90;;;;;;5049213;28;20427;-72
2021/09/27 05:46:01;;;;;;;9.90;8.90;;;16.30;99.90;;;;;;5073595;28;20531;-72
2021/09/27 05:48:52;;;;;;;10.03;8.10;;;16.30;99.90;;;;;;5045847;28;20865;-72
2021/09/27 05:51:29;;;;;;;12.47;8.40;;;16.30;99.90;;;;;;5047444;28;20484;-72
2021/09/27 06:08:23;;;;;;;11.97;8.80;;;16.40;99.90;;;;;;5046071;28;20555;-73
2021/09/27 06:11:02;;;;;;;10.97;8.23;;;16.40;99.90;;;;;;5043736;28;20418;-72
2021/09/27 06:13:32;;;;;;;9.60;8.40;;;16.50;99.90;;;;;;5042966;28;20924;-72
2021/09/27 06:27:02;;;;;;;10.20;8.77;;;16.70;99.90;;;;;;5062331;28;20668;-73
2021/09/27 06:32:51;;;;;;;11.60;9.67;;;16.70;99.90;;;;;;5128239;27;20576;-72
2021/09/27 06:35:22;;;;;;;12.07;8.97;;;16.60;99.90;;;;;;5092185;28;20431;-73
2021/09/27 06:37:48;;;;;;;11.50;8.77;;;16.60;99.90;;;;;;5108570;28;20547;-73
2021/09/27 06:40:14;;;;;;;11.77;8.93;;;16.70;99.90;;;;;;5101445;28;20860;-73
2021/09/27 06:42:40;;;;;;;10.80;8.97;;;16.70;99.90;;;;;;5106304;28;20440;-72
2021/09/27 06:45:08;;;;;;;10.53;8.63;;;16.70;99.90;;;;;;5105930;28;20566;-72
2021/09/27 06:47:34;;;;;;;10.30;8.13;;;16.70;99.90;;;;;;5108926;28;20530;-73
2021/09/27 06:50:00;;;;;;;11.30;8.37;;;16.70;99.90;;;;;;5102671;28;20542;-73
2021/09/27 06:52:26;;;;;;;10.13;8.43;;;16.80;99.90;;;;;;5103303;28;20182;-73
2021/09/27 06:54:52;;;;;;;12.10;8.70;;;16.80;99.90;;;;;;5098123;28;20487;-72
2021/09/27 06:57:18;;;;;;;8.97;8.07;;;16.80;99.90;;;;;;5101852;28;20456;-72
2021/09/27 06:59:44;;;;;;;10.90;9.10;;;16.80;99.90;;;;;;5107873;28;20467;-72
2021/09/27 07:02:09;;;;;;;10.40;7.83;;;16.80;99.90;;;;;;5108521;28;20182;-72
2021/09/27 07:04:35;;;;;;;10.13;8.63;;;16.90;99.90;;;;;;5103874;28;20193;-73
2021/09/27 07:07:02;;;;;;;13.50;8.40;;;16.90;99.90;;;;;;5105346;28;20268;-73
2021/09/27 07:09:28;;;;;;;12.30;9.47;;;17.00;99.90;;;;;;5104549;28;20176;-73
2021/09/27 07:11:53;;;;;;;12.13;9.60;;;17.00;99.90;;;;;;5103638;28;20960;-73
2021/09/27 07:14:19;;;;;;;9.03;8.13;;;17.10;99.90;;;;;;5108077;28;20435;-74
2021/09/27 07:16:45;;;;;;;9.47;7.90;;;17.10;99.90;;;;;;5108639;28;20174;-74
2021/09/27 07:19:11;;;;;;;11.20;8.63;;;17.20;99.90;;;;;;5108895;28;20211;-73
2021/09/27 07:21:40;;;;;;;10.20;7.90;;;17.20;99.90;;;;;;5103596;28;20251;-73
2021/09/27 07:24:07;;;;;;;11.70;9.00;;;17.30;99.90;;;;;;5100086;28;20523;-73
2021/09/27 07:26:33;;;;;;;10.17;7.37;;;17.30;99.90;;;;;;5103752;28;20436;-73
2021/09/27 07:28:59;;;;;;;8.87;7.10;;;17.40;99.90;;;;;;5101002;28;20959;-73
2021/09/27 07:31:28;;;;;;;9.50;8.17;;;17.40;99.90;;;;;;5104331;28;20206;-73
2021/09/27 07:33:54;;;;;;;8.80;7.90;;;17.50;99.90;;;;;;5111706;28;20456;-73
2021/09/27 07:36:20;;;;;;;9.60;8.23;;;17.70;99.90;;;;;;5102533;28;20438;-74
2021/09/27 07:38:45;;;;;;;7.93;7.20;;;17.80;99.90;;;;;;5098979;28;20435;-74
2021/09/27 07:41:12;;;;;;;9.50;7.80;;;17.90;99.90;;;;;;5107375;28;20189;-73
2021/09/27 07:43:38;;;;;;;7.70;7.00;;;18.00;99.90;;;;;;5087700;28;20179;-73
2021/09/27 07:46:04;;;;;;;9.70;7.10;;;18.20;99.90;;;;;;5091088;28;20451;-73
2021/09/27 07:48:30;;;;;;;7.57;6.73;;;18.30;99.90;;;;;;5091107;28;20203;-74
2021/09/27 07:50:55;;;;;;;7.70;6.50;;;18.40;99.90;;;;;;5085704;28;20994;-74
2021/09/27 07:53:23;;;;;;;9.37;6.60;;;18.40;99.90;;;;;;5087759;28;20173;-73
2021/09/27 07:55:50;;;;;;;7.70;6.90;;;18.40;99.90;;;;;;5090187;28;20178;-73
2021/09/27 07:58:17;;;;;;;8.00;7.20;;;18.40;99.90;;;;;;5087081;28;20435;-74
2021/09/27 08:00:45;;;;;;;7.10;6.40;;;18.40;99.90;;;;;;5098146;28;20783;-74
2021/09/27 08:03:11;;;;;;;8.37;7.37;;;18.40;99.90;;;;;;5094282;28;20444;-74
2021/09/27 08:05:38;;;;;;;7.87;7.10;;;18.30;99.90;;;;;;5090382;28;20433;-74
2021/09/27 08:08:05;;;;;;;8.93;7.30;;;18.30;99.90;;;;;;5087688;28;20581;-74
2021/09/27 08:10:32;;;;;;;7.77;7.00;;;18.30;99.90;;;;;;5091037;28;20463;-74
2021/09/27 08:12:58;;;;;;;9.57;7.30;;;18.30;99.90;;;;;;5091132;28;20451;-73
2021/09/27 08:15:27;;;;;;;7.90;7.20;;;18.30;99.90;;;;;;5084289;28;20492;-74
2021/09/27 08:17:54;;;;;;;9.70;8.00;;;18.30;99.90;;;;;;5094400;28;20767;-73
2021/09/27 08:20:24;;;;;;;8.07;7.23;;;18.30;99.90;;;;;;5092148;28;20906;-74
2021/09/27 08:22:50;;;;;;;7.90;7.10;;;18.40;99.90;;;;;;5086769;28;20444;-74
2021/09/27 08:25:16;;;;;;;8.40;7.50;;;18.50;99.90;;;;;;5086871;28;20431;-73
2021/09/27 08:27:45;;;;;;;7.17;6.43;;;18.60;99.90;;;;;;5083195;28;20183;-73
2021/09/27 08:30:15;;;;;;;7.97;6.90;;;18.60;99.90;;;;;;5086427;28;20963;-73
2021/09/27 08:32:41;;;;;;;7.10;5.73;;;18.70;99.90;;;;;;5086484;28;20907;-73
2021/09/27 08:35:07;;;;;;;9.67;5.87;;;18.90;99.90;;;;;;5091619;28;20458;-73
2021/09/27 08:37:33;;;;;;;6.57;5.87;;;19.00;99.90;;;;;;5086615;28;20797;-73
2021/09/27 08:39:58;;;;;;;6.33;5.43;;;19.20;99.90;;;;;;5088226;28;20417;-73
2021/09/27 08:42:28;;;;;;;7.03;6.37;;;19.30;99.90;;;;;;5082844;28;20190;-73
2021/09/27 08:45:03;;;;;;;5.43;4.70;;;19.50;99.90;;;;;;5085366;28;20175;-73
2021/09/27 08:47:39;;;;;;;5.30;4.80;;;19.60;99.90;;;;;;5083914;28;20420;-73
2021/09/27 08:52:49;;;;;;;6.00;5.30;;;19.80;99.90;;;;;;5073040;27;20563;-73
2021/09/27 08:55:15;;;;;;;5.83;5.33;;;19.80;99.90;;;;;;5056375;28;20470;-73
2021/09/27 09:00:49;;;;;;;8.93;5.00;;;19.80;99.90;;;;;;5041733;28;20679;-73
2021/09/27 09:06:22;;;;;;;5.23;4.73;;;19.80;99.90;;;;;;5044299;28;21305;-72
2021/09/27 09:09:01;;;;;;;5.90;4.53;;;19.90;99.90;;;;;;5042852;28;20411;-73
2021/09/27 09:14:30;;;;;;;5.67;4.40;;;19.90;99.90;;;;;;5061261;28;20533;-72
2021/09/27 09:16:58;;;;;;;8.43;6.03;;;20.00;99.90;;;;;;5056743;28;20975;-72
2021/09/27 09:19:29;;;;;;;4.80;4.27;;;20.00;99.90;;;;;;5059241;28;20838;-73
2021/09/27 09:22:01;;;;;;;5.20;4.70;;;20.10;99.90;;;;;;5054055;28;20804;-72
2021/09/27 09:24:29;;;;;;;7.17;4.00;;;20.10;99.90;;;;;;5063595;28;20516;-72
2021/09/27 09:27:01;;;;;;;5.20;4.70;;;20.20;99.90;;;;;;5058602;28;20437;-72
2021/09/27 09:29:36;;;;;;;6.00;4.70;;;20.20;99.90;;;;;;5065133;28;20579;-73
2021/09/27 09:32:18;;;;;;;5.13;3.90;;;20.30;99.90;;;;;;5061892;28;20446;-73
2021/09/27 09:34:45;;;;;;;5.27;4.20;;;20.30;99.90;;;;;;5055519;28;21026;-73
2021/09/27 09:37:23;;;;;;;6.00;3.97;;;20.30;99.90;;;;;;5063190;28;20480;-73
2021/09/27 09:39:59;;;;;;;5.00;4.20;;;20.30;99.90;;;;;;5060414;28;20433;-73
2021/09/27 09:42:31;;;;;;;4.00;3.50;;;20.30;99.90;;;;;;5055864;28;21120;-73
2021/09/27 09:45:08;;;;;;;4.70;3.63;;;20.40;99.90;;;;;;5061894;28;20464;-73
2021/09/27 09:47:34;;;;;;;6.20;5.57;;;20.50;99.90;;;;;;5052186;28;20438;-73
2021/09/27 10:03:32;;;;;;;3.60;3.30;;;20.80;99.90;;;;;;5046084;28;20643;-72
2021/09/27 10:06:07;;;;;;;3.60;2.50;;;20.90;99.90;;;;;;5045454;28;20942;-73
2021/09/27 10:08:35;;;;;;;3.40;3.10;;;20.90;99.90;;;;;;5047203;28;20436;-74
2021/09/27 10:11:07;;;;;;;2.90;2.70;;;21.00;99.90;;;;;;5050338;28;20475;-73
2021/09/27 10:18:47;;;;;;;3.20;2.90;;;21.00;99.90;;;;;;5062098;28;20654;-73
2021/09/27 10:24:15;;;;;;;3.90;2.93;;;21.00;99.90;;;;;;5064564;28;20533;-74
2021/09/27 10:26:45;;;;;;;3.37;3.07;;;21.20;99.90;;;;;;5061578;28;20499;-74
2021/09/27 10:29:18;;;;;;;4.13;3.73;;;21.10;99.90;;;;;;5059339;28;20484;-74
2021/09/27 10:31:54;;;;;;;4.30;3.40;;;21.20;99.90;;;;;;5065172;28;20440;-74
2021/09/27 10:34:21;;;;;;;3.77;3.40;;;21.10;99.90;;;;;;5070158;28;20405;-74
2021/09/27 10:36:51;;;;;;;3.30;3.00;;;21.10;99.90;;;;;;5064671;28;20426;-74
2021/09/27 10:39:19;;;;;;;4.30;3.90;;;20.90;99.90;;;;;;5065135;28;20426;-74
2021/09/27 10:41:53;;;;;;;6.23;3.53;;;20.70;99.90;;;;;;5064959;28;21044;-74
2021/09/27 10:44:25;;;;;;;3.37;3.07;;;20.70;99.90;;;;;;5064629;28;20436;-74
2021/09/27 10:46:54;;;;;;;3.57;3.27;;;20.60;99.90;;;;;;5058803;28;20876;-74
2021/09/27 10:49:26;;;;;;;7.20;3.40;;;20.60;99.90;;;;;;5066186;28;20426;-74
2021/09/27 10:51:56;;;;;;;6.37;3.67;;;20.60;99.90;;;;;;5060702;28;20631;-74
2021/09/27 10:57:13;;;;;;;4.07;3.67;;;20.60;99.90;;;;;;5059286;28;20638;-73
2021/09/27 10:59:59;;;;;;;6.13;3.60;;;20.60;99.90;;;;;;5043591;28;20472;-73
2021/09/27 11:02:32;;;;;;;3.63;3.27;;;20.50;99.90;;;;;;5044071;28;20430;-73
2021/09/27 11:08:08;;;;;;;4.37;3.97;;;20.50;99.90;;;;;;5047170;28;20669;-72
2021/09/27 11:10:46;;;;;;;4.67;4.17;;;20.50;99.90;;;;;;5046130;28;20437;-72
2021/09/27 11:13:39;;;;;;;3.67;3.37;;;20.50;99.90;;;;;;5046325;28;20434;-73
2021/09/27 11:19:27;;;;;;;5.00;3.20;;;20.60;99.90;;;;;;5063344;28;20566;-73
2021/09/27 11:21:53;;;;;;;4.27;3.87;;;20.70;99.90;;;;;;5071839;28;20517;-73
2021/09/27 11:29:57;;;;;;;4.03;3.10;;;20.80;99.90;;;;;;5047759;28;20525;-73
2021/09/27 11:35:10;;;;;;;4.73;3.07;;;20.80;99.90;;;;;;5048488;28;20545;-74
2021/09/27 11:40:38;;;;;;;3.07;2.63;;;20.90;99.90;;;;;;5100585;27;20920;-73
2021/09/27 11:45:48;;;;;;;4.50;3.30;;;20.90;99.90;;;;;;5046529;28;20573;-73
2021/09/27 11:51:03;;;;;;;3.67;2.90;;;20.90;99.90;;;;;;5040343;28;20659;-73
2021/09/27 11:57:12;;;;;;;4.27;3.87;;;20.90;99.90;;;;;;5061950;28;20654;-73
2021/09/27 12:05:22;;;;;;;2.60;2.40;;;20.90;99.90;;;;;;5048769;28;20553;-72
2021/09/27 12:07:55;;;;;;;4.40;4.00;;;20.90;99.90;;;;;;5025155;28;20929;-73
2021/09/27 12:13:10;;;;;;;2.70;2.50;;;20.90;99.90;;;;;;5063224;28;20624;-73
2021/09/27 12:15:40;;;;;;;4.97;2.10;;;21.10;99.90;;;;;;5059226;28;20878;-73
2021/09/27 12:18:27;;;;;;;2.47;2.27;;;21.20;99.90;;;;;;5062279;28;20454;-73
2021/09/27 12:20:52;;;;;;;2.90;2.70;;;21.30;99.90;;;;;;5062472;28;20476;-73
2021/09/27 12:23:18;;;;;;;4.27;2.60;;;21.30;99.90;;;;;;5065464;28;20438;-73
2021/09/27 12:25:43;;;;;;;2.33;2.20;;;21.40;99.90;;;;;;5059610;28;20245;-74
2021/09/27 12:28:13;;;;;;;5.00;2.30;;;21.40;99.90;;;;;;5058192;28;20267;-73
2021/09/27 12:30:42;;;;;;;3.63;2.63;;;21.50;99.90;;;;;;5057689;28;20186;-73
2021/09/27 12:33:12;;;;;;;3.07;2.77;;;21.50;99.90;;;;;;5056669;28;20445;-73
2021/09/27 12:38:20;;;;;;;2.47;2.27;;;21.40;99.90;;;;;;5058049;28;20529;-73
2021/09/27 12:40:49;;;;;;;3.33;3.03;;;21.30;99.90;;;;;;5040062;28;20776;-73
2021/09/27 12:43:19;;;;;;;2.73;2.33;;;21.40;99.90;;;;;;5043861;28;20857;-73
2021/09/27 12:45:49;;;;;;;2.93;2.60;;;21.40;99.90;;;;;;5035904;28;20915;-73
2021/09/27 12:48:23;;;;;;;3.57;3.00;;;21.50;99.90;;;;;;5033183;28;20432;-73
2021/09/27 12:50:54;;;;;;;2.30;2.10;;;21.50;99.90;;;;;;5045064;28;20442;-73
2021/09/27 12:53:26;;;;;;;2.87;2.60;;;21.60;99.90;;;;;;5041323;28;20427;-74
2021/09/27 12:55:54;;;;;;;5.63;3.70;;;21.60;99.90;;;;;;5041511;28;20942;-74
2021/09/27 12:58:38;;;;;;;2.10;1.77;;;21.70;99.90;;;;;;5039262;28;20766;-74
2021/09/27 13:01:08;;;;;;;2.17;1.97;;;21.70;99.90;;;;;;5045354;28;20446;-74
2021/09/27 13:03:35;;;;;;;3.70;2.77;;;21.80;99.90;;;;;;5041477;28;20578;-74
2021/09/27 13:06:10;;;;;;;6.90;2.93;;;21.70;99.90;;;;;;5042881;28;20438;-74
2021/09/27 13:17:07;;;;;;;2.83;2.50;;;21.50;99.90;;;;;;5061591;28;20539;-74
2021/09/27 13:19:38;;;;;;;4.43;2.70;;;21.60;99.90;;;;;;5063413;28;20502;-74
2021/09/27 13:22:04;;;;;;;2.53;2.10;;;21.60;99.90;;;;;;5052154;28;20500;-74
2021/09/27 13:24:30;;;;;;;2.87;2.33;;;21.70;99.90;;;;;;5062853;28;20454;-74
2021/09/27 13:40:44;;;;;;;2.43;2.23;;;21.70;99.90;;;;;;5059088;28;20658;-73
2021/09/27 13:46:11;;;;;;;3.00;2.70;;;21.20;99.90;;;;;;5043495;28;20707;-73
2021/09/27 13:48:37;;;;;;;2.27;2.10;;;21.20;99.90;;;;;;5050082;28;20441;-73
2021/09/27 13:51:04;;;;;;;3.40;3.00;;;21.20;99.90;;;;;;5050161;28;20465;-73
2021/09/27 13:53:48;;;;;;;4.73;3.70;;;21.30;99.90;;;;;;5046359;28;20188;-73
2021/09/27 13:56:27;;;;;;;3.00;2.67;;;21.30;99.90;;;;;;5041249;28;20469;-73
2021/09/27 13:58:53;;;;;;;3.20;2.70;;;21.20;99.90;;;;;;5044938;28;20450;-73
2021/09/27 14:01:19;;;;;;;3.80;2.60;;;21.10;99.90;;;;;;5046945;28;20465;-73
2021/09/27 14:03:45;;;;;;;5.37;2.93;;;21.10;99.90;;;;;;5047222;28;20191;-73
2021/09/27 14:06:13;;;;;;;3.67;2.70;;;21.10;99.90;;;;;;5047494;28;20434;-73
2021/09/27 14:08:38;;;;;;;2.37;2.17;;;21.10;99.90;;;;;;5044198;28;20932;-73
2021/09/27 14:11:04;;;;;;;3.40;2.20;;;21.20;99.90;;;;;;5042326;28;20712;-73
2021/09/27 14:13:31;;;;;;;2.70;2.50;;;21.20;99.90;;;;;;5043400;28;20611;-73
2021/09/27 14:16:02;;;;;;;2.60;2.40;;;21.20;99.90;;;;;;5044020;28;20184;-73
2021/09/27 14:18:28;;;;;;;2.87;2.53;;;21.30;99.90;;;;;;5045063;28;20444;-73
2021/09/27 14:20:54;;;;;;;4.70;2.03;;;21.40;99.90;;;;;;5043088;28;20863;-73
2021/09/27 14:23:20;;;;;;;2.40;2.20;;;21.50;99.90;;;;;;5045857;28;20180;-73
2021/09/27 14:25:46;;;;;;;2.50;2.30;;;21.60;99.90;;;;;;5047416;28;20959;-73
2021/09/27 14:28:13;;;;;;;3.37;2.37;;;21.60;99.90;;;;;;5045764;28;20649;-73
2021/09/27 14:30:39;;;;;;;9.20;2.70;;;21.50;99.90;;;;;;5045424;28;20780;-73
2021/09/27 14:33:05;;;;;;;4.53;2.87;;;21.40;99.90;;;;;;5044149;28;20545;-73
2021/09/27 14:35:30;;;;;;;2.97;2.67;;;21.20;99.90;;;;;;5042075;28;20548;-73
2021/09/27 14:37:56;;;;;;;3.20;2.87;;;21.20;99.90;;;;;;5043520;28;20180;-73
2021/09/27 14:40:24;;;;;;;2.63;2.43;;;21.10;99.90;;;;;;5043890;28;20649;-73
2021/09/27 14:42:50;;;;;;;3.23;2.20;;;20.90;99.90;;;;;;5044114;28;20896;-73
2021/09/27 14:45:17;;;;;;;2.53;2.33;;;20.90;99.90;;;;;;5044843;28;20463;-73
2021/09/27 14:47:44;;;;;;;3.00;2.63;;;20.80;99.90;;;;;;5046315;28;20430;-73
2021/09/27 14:50:15;;;;;;;2.43;2.23;;;20.80;99.90;;;;;;5045252;28;20865;-73
2021/09/27 14:52:41;;;;;;;3.40;2.83;;;20.80;99.90;;;;;;5043149;28;20514;-73
2021/09/27 14:55:08;;;;;;;3.80;2.30;;;20.80;99.90;;;;;;5041800;28;20446;-73
2021/09/27 14:57:34;;;;;;;3.37;2.50;;;20.80;99.90;;;;;;5028332;28;20184;-73
2021/09/27 15:00:00;;;;;;;2.63;2.43;;;20.70;99.90;;;;;;5034159;28;20467;-73
2021/09/27 15:02:26;;;;;;;2.70;2.50;;;20.70;99.90;;;;;;5033723;28;20169;-73
2021/09/27 15:04:51;;;;;;;4.50;2.60;;;20.50;99.90;;;;;;5032746;28;20451;-73
2021/09/27 15:07:17;;;;;;;2.80;2.57;;;20.20;99.90;;;;;;5033505;28;20187;-73
2021/09/27 15:09:43;;;;;;;2.90;2.63;;;20.00;99.90;;;;;;5033685;28;20188;-73
2021/09/27 15:12:09;;;;;;;2.70;2.50;;;19.90;99.90;;;;;;5033140;28;20211;-73
2021/09/27 15:14:34;;;;;;;8.70;3.77;;;19.80;99.90;;;;;;5032950;28;20416;-73
2021/09/27 15:17:00;;;;;;;3.27;2.97;;;19.80;99.90;;;;;;5032768;28;20492;-73
2021/09/27 15:19:27;;;;;;;2.93;2.57;;;19.80;99.90;;;;;;5033555;28;20188;-73
2021/09/27 15:21:54;;;;;;;3.53;3.23;;;19.70;99.90;;;;;;5032888;28;20177;-74
2021/09/27 15:24:22;;;;;;;3.30;2.90;;;19.70;99.90;;;;;;5031891;28;20447;-74
2021/09/27 15:26:48;;;;;;;3.57;2.80;;;19.60;99.90;;;;;;5033277;28;20772;-74
2021/09/27 15:29:19;;;;;;;4.93;3.00;;;19.60;99.90;;;;;;5033662;28;21040;-74
2021/09/27 15:31:49;;;;;;;3.93;3.57;;;19.60;99.90;;;;;;5032408;28;20419;-74
2021/09/27 15:34:21;;;;;;;7.37;3.90;;;19.60;99.90;;;;;;5033310;28;20502;-74
2021/09/27 15:36:50;;;;;;;3.40;3.10;;;19.60;99.90;;;;;;5032917;28;20438;-74
2021/09/27 15:39:17;;;;;;;3.57;3.23;;;19.50;99.90;;;;;;5032315;28;20785;-74
2021/09/27 15:41:46;;;;;;;4.20;3.30;;;19.20;99.90;;;;;;5032345;28;20418;-74
2021/09/27 15:44:16;;;;;;;4.77;3.67;;;19.00;99.90;;;;;;5033020;28;20463;-74
2021/09/27 15:46:42;;;;;;;5.70;4.60;;;18.90;99.90;;;;;;5032203;28;20427;-74
2021/09/27 15:49:10;;;;;;;4.83;3.20;;;18.80;99.90;;;;;;5033805;28;20426;-74
2021/09/27 15:51:36;;;;;;;4.63;4.23;;;18.70;99.90;;;;;;5027384;28;20230;-74
2021/09/27 15:54:02;;;;;;;3.90;3.57;;;18.60;99.90;;;;;;5032151;28;21003;-74
2021/09/27 15:56:27;;;;;;;6.50;5.80;;;18.50;99.90;;;;;;5032127;28;20191;-74
2021/09/27 15:58:54;;;;;;;4.53;3.87;;;18.50;99.90;;;;;;5033339;28;20776;-74
2021/09/27 16:01:22;;;;;;;5.70;4.40;;;18.40;99.90;;;;;;5031996;28;20732;-76
2021/09/27 16:03:48;;;;;;;5.30;4.63;;;18.40;99.90;;;;;;5031028;28;20439;-74
2021/09/27 16:06:14;;;;;;;5.27;3.50;;;18.30;99.90;;;;;;5036058;28;20442;-74
2021/09/27 16:08:40;;;;;;;4.40;3.93;;;18.30;99.90;;;;;;5028476;28;20490;-74
2021/09/27 16:11:06;;;;;;;4.67;3.77;;;18.30;99.90;;;;;;5032760;28;20406;-74
2021/09/27 16:13:33;;;;;;;4.73;4.33;;;18.30;99.90;;;;;;5029812;28;20499;-74
2021/09/27 16:16:00;;;;;;;4.30;3.63;;;18.20;99.90;;;;;;5032475;28;20446;-74
2021/09/27 16:18:26;;;;;;;7.60;5.30;;;18.20;99.90;;;;;;5032576;28;20437;-74
2021/09/27 16:20:51;;;;;;;5.70;5.20;;;18.20;99.90;;;;;;5030418;28;20780;-74
2021/09/27 16:23:17;;;;;;;5.77;5.03;;;18.00;99.90;;;;;;5032348;28;20593;-74
2021/09/27 16:25:44;;;;;;;4.67;3.97;;;17.90;99.90;;;;;;5032806;28;20743;-74
2021/09/27 16:28:12;;;;;;;6.20;5.10;;;17.90;99.90;;;;;;5032216;28;20892;-74
2021/09/27 16:30:38;;;;;;;8.10;4.83;;;17.80;99.90;;;;;;5032427;28;20475;-74
2021/09/27 16:33:05;;;;;;;6.23;5.50;;;17.90;99.90;;;;;;5031432;28;20440;-74
2021/09/27 16:35:32;;;;;;;8.03;5.00;;;17.90;99.90;;;;;;5031163;28;20423;-74
2021/09/27 16:37:58;;;;;;;5.17;4.40;;;17.90;99.90;;;;;;5029435;28;20513;-74
2021/09/27 16:40:25;;;;;;;5.10;4.33;;;17.80;99.90;;;;;;5031767;28;20456;-74
2021/09/27 16:42:51;;;;;;;5.93;4.57;;;17.80;99.90;;;;;;5031140;28;20468;-75
2021/09/27 16:45:18;;;;;;;8.40;4.73;;;17.70;99.90;;;;;;5029261;28;20477;-74
2021/09/27 16:47:44;;;;;;;6.10;4.00;;;17.70;99.90;;;;;;5031204;28;20897;-74
2021/09/27 16:50:10;;;;;;;3.70;3.40;;;17.60;99.90;;;;;;5026407;28;20425;-74
2021/09/27 16:52:36;;;;;;;6.40;4.33;;;17.60;99.90;;;;;;5029241;28;20227;-74
2021/09/27 16:55:02;;;;;;;5.60;4.77;;;17.60;99.90;;;;;;5029746;28;20423;-74
2021/09/27 16:57:28;;;;;;;5.50;4.33;;;17.50;99.90;;;;;;5031902;28;20601;-74
2021/09/27 16:59:58;;;;;;;9.03;5.50;;;17.50;99.90;;;;;;5028338;28;20432;-74
2021/09/27 17:02:25;;;;;;;5.20;4.10;;;17.50;99.90;;;;;;5027489;28;20180;-74
2021/09/27 17:04:52;;;;;;;5.60;4.80;;;17.40;99.90;;;;;;5023919;28;20462;-74
2021/09/27 17:07:19;;;;;;;4.27;3.63;;;17.40;99.90;;;;;;5027454;28;20823;-74
2021/09/27 17:09:46;;;;;;;2.40;2.20;;;17.50;99.90;;;;;;5027724;28;20427;-74
2021/09/27 17:12:12;;;;;;;2.53;1.60;;;17.40;99.90;;;;;;5021061;28;20407;-74
2021/09/27 17:23:02;;;;;;;4.17;2.30;;;16.70;99.90;;;;;;5050849;28;21112;-74
2021/09/27 17:25:30;;;;;;;6.37;3.40;;;16.50;99.90;;;;;;5023934;28;20510;-74
2021/09/27 17:27:59;;;;;;;2.93;2.00;;;16.30;99.90;;;;;;5026520;28;20483;-74
2021/09/27 17:30:24;;;;;;;3.33;1.70;;;16.20;99.90;;;;;;5034051;28;20415;-74
2021/09/27 17:32:51;;;;;;;3.00;1.80;;;16.10;99.90;;;;;;5025305;28;20438;-74
2021/09/27 17:35:17;;;;;;;2.80;1.60;;;16.00;99.90;;;;;;5032710;28;20176;-74
2021/09/27 17:37:43;;;;;;;4.10;2.40;;;15.90;99.90;;;;;;5030332;28;20851;-74
2021/09/27 17:40:10;;;;;;;2.60;1.80;;;15.80;99.90;;;;;;5028644;28;20270;-74
2021/09/27 17:42:36;;;;;;;2.50;2.10;;;15.70;99.90;;;;;;5026436;28;20290;-74